Rural Hall, North Carolina
Current Conditions -  °F | °C
As of 3:54 AM on Saturday 20 Dec 2014 (Local Time) from KINT Reporting Station
Few Clouds Few Clouds  
Wind Chill: 33°   Ceiling: Unl
Heat Index: 38°   Visibility: 10mi
Dew Point: 23°   Wind: 6mph
Humidity: 55%   Direction: 40°NE
Pressure: 30.21"   Gusts: NA
Location:  36.23°N, 80.29°W
Report Text: KINT 200854Z AUTO 04005KT 10SM FEW120 03/M05 A3021 RMK AO2 SLP231 T00331050 53001
Loading
Personal Weather Stations






























Interactive Weather Map New forecast layout! Learn more

10-Day Weather Forecast

Advertisements
Track Severe Weather on mobile